createdAt,value
2022-07-25T00:03:00.485Z,10.80
2022-07-25T00:15:00.880Z,11.40
2022-07-25T00:27:01.351Z,11.40
2022-07-25T00:39:01.809Z,11.20
2022-07-25T00:51:02.291Z,12.10
2022-07-25T01:03:02.815Z,12.30
2022-07-25T01:15:03.204Z,12.60
2022-07-25T01:27:03.637Z,11.90
2022-07-25T01:39:04.129Z,12.00
2022-07-25T01:51:04.552Z,12.40
2022-07-25T02:03:04.988Z,12.50
2022-07-25T02:15:05.438Z,12.90
2022-07-25T02:27:05.931Z,11.60
2022-07-25T02:39:06.368Z,12.80
2022-07-25T02:51:06.823Z,12.50
2022-07-25T03:03:07.276Z,12.40
2022-07-25T03:15:07.746Z,12.70
2022-07-25T03:27:08.197Z,12.50
2022-07-25T03:39:08.667Z,13.60
2022-07-25T03:51:09.103Z,12.70
2022-07-25T04:03:09.547Z,12.70
2022-07-25T04:15:10.015Z,12.10
2022-07-25T04:27:10.437Z,14.00
2022-07-25T04:39:10.907Z,13.70
2022-07-25T04:51:11.396Z,14.30
2022-07-25T05:03:11.850Z,13.30
2022-07-25T05:15:12.280Z,12.80
2022-07-25T05:27:12.740Z,11.70
2022-07-25T05:39:13.229Z,11.10
2022-07-25T05:51:13.617Z,10.80
2022-07-25T06:03:14.099Z,9.00
2022-07-25T06:15:22.578Z,8.70
2022-07-25T06:27:19.937Z,8.40
2022-07-25T06:39:15.471Z,7.40
2022-07-25T06:51:15.906Z,7.20
2022-07-25T07:03:16.412Z,7.20
2022-07-25T07:15:16.846Z,6.50
2022-07-25T07:27:19.221Z,6.30
2022-07-25T07:39:17.728Z,5.70
2022-07-25T07:51:18.179Z,4.80
2022-07-25T08:03:18.813Z,4.20
2022-07-25T08:15:19.123Z,4.10
2022-07-25T08:27:19.578Z,4.00
2022-07-25T08:39:20.024Z,4.20
2022-07-25T08:51:20.510Z,4.30
2022-07-25T09:03:20.997Z,4.30
2022-07-25T09:15:21.397Z,4.30
2022-07-25T09:27:21.844Z,4.00
2022-07-25T09:39:22.342Z,4.40
2022-07-25T09:51:22.769Z,5.10
2022-07-25T10:03:23.206Z,5.60
2022-07-25T10:15:23.683Z,5.20
2022-07-25T10:27:24.172Z,5.00
2022-07-25T10:39:24.590Z,5.00
2022-07-25T10:51:25.036Z,4.90
2022-07-25T11:03:25.523Z,5.30
2022-07-25T11:15:26.024Z,5.00
2022-07-25T11:27:26.433Z,4.60
2022-07-25T11:39:26.886Z,4.90
2022-07-25T11:51:27.335Z,4.90
2022-07-25T12:03:27.921Z,5.20
2022-07-25T12:15:28.284Z,5.30
2022-07-25T12:27:28.708Z,4.90
2022-07-25T12:39:29.129Z,5.30
2022-07-25T12:51:29.653Z,5.10
2022-07-25T13:03:30.074Z,5.60
2022-07-25T13:15:30.518Z,5.50
2022-07-25T13:27:31.012Z,5.30
2022-07-25T13:39:31.475Z,5.10
2022-07-25T13:51:31.898Z,5.50
2022-07-25T14:03:32.385Z,5.50
2022-07-25T14:15:32.845Z,5.80
2022-07-25T14:27:33.299Z,5.20
2022-07-25T14:39:33.735Z,5.20
2022-07-25T14:51:34.212Z,5.40
2022-07-25T15:03:34.650Z,5.20
2022-07-25T15:15:35.130Z,5.60
2022-07-25T15:27:35.571Z,5.40
2022-07-25T15:39:35.983Z,5.80
2022-07-25T15:51:36.475Z,5.60
2022-07-25T16:03:37.045Z,5.30
2022-07-25T16:15:37.396Z,5.40
2022-07-25T16:27:37.884Z,5.00
2022-07-25T16:39:38.309Z,5.20
2022-07-25T16:51:38.791Z,5.20
2022-07-25T17:03:39.235Z,5.10
2022-07-25T17:15:39.825Z,5.20
2022-07-25T17:27:40.138Z,5.30
2022-07-25T17:39:40.615Z,6.50
2022-07-25T17:51:41.038Z,6.90
2022-07-25T18:03:41.506Z,7.20
2022-07-25T18:15:41.999Z,7.40
2022-07-25T18:27:42.458Z,8.20
2022-07-25T18:39:42.885Z,8.00
2022-07-25T18:51:43.336Z,8.20
2022-07-25T19:03:43.810Z,8.30
2022-07-25T19:15:44.337Z,7.70
2022-07-25T19:27:44.726Z,8.00
2022-07-25T19:39:45.133Z,8.50
2022-07-25T19:51:45.704Z,7.70
2022-07-25T20:03:46.090Z,7.40
2022-07-25T20:15:46.495Z,8.00
2022-07-25T20:27:46.981Z,7.80
2022-07-25T20:39:48.221Z,7.50
2022-07-25T20:51:49.870Z,7.40
2022-07-25T21:03:48.368Z,6.90
2022-07-25T21:15:48.811Z,7.50
2022-07-25T21:27:49.308Z,8.50
2022-07-25T21:39:49.772Z,8.40
2022-07-25T21:51:50.192Z,8.30
2022-07-25T22:03:50.739Z,8.40
2022-07-25T22:15:51.082Z,8.30
2022-07-25T22:27:51.566Z,8.80
2022-07-25T22:39:52.009Z,8.30
2022-07-25T22:51:52.470Z,8.50
2022-07-25T23:03:53.005Z,8.20
2022-07-25T23:15:53.413Z,8.80
2022-07-25T23:27:53.830Z,8.50
2022-07-25T23:39:54.274Z,9.30
2022-07-25T23:51:54.719Z,8.90
